»·PEaware :: N1127N KBUR-KLAS

N1127N :: KBUR-KLAS

FLIGHT INFORMATION

Flight Status: Arrived
Operator: Privately registered:
United States
More flights under this callsign
Pilot: Alexander M. (19327)
Aircraft: CESSNA 550 CITATION 2/S2/BRAVO
(C550)
More flights by this aircraft type
Origin: KBUR Bob Hope-Burbank
United States
Destination: KLAS McCarran Intl
United States
More flights between these airports :: More routes between these airports
Route: +SLAPP1 MISEN KEPEC6
File this flight plan on PilotEdge
Remarks: Pilotedge I-04 Rating...on stream! twitch.tv / allaboutflight
Altitude:
(Current/Filed)
28,000ft
Speed:
(Current/Filed)
220kts
Departed: 29-Oct-18 04:56 PM
Arrived: 29-Oct-18 06:08 PM
Distance/Time
Traveled:
194nm/1:12
Distance/Time
To Go:
Arrived

Flight Plot

Page will automatically refresh every two minutes.

Flight plan parsing failed; only flown route is shown


Map Options




Map Legend


Flown Route
Filed Route
Departure Airport
Arrival Airport
Navaid (VOR, NDB)
Fix

Horizontal Profiles

Position Reports

Time Latitude Longitude Heading Altitude Ground
Speed
29-Oct-18 16:37 34.200290 -118.365980 89 781ft 0kts
29-Oct-18 16:38 34.200290 -118.365980 89 781ft 0kts
29-Oct-18 16:39 34.200290 -118.365980 89 781ft 0kts
29-Oct-18 16:40 34.200290 -118.365980 89 781ft 0kts
29-Oct-18 16:41 34.200290 -118.365980 89 781ft 0kts
29-Oct-18 16:42 34.200290 -118.365980 89 781ft 0kts
29-Oct-18 16:43 34.200290 -118.365980 89 781ft 0kts
29-Oct-18 16:44 34.200290 -118.365980 89 781ft 0kts
29-Oct-18 16:45 34.200290 -118.365980 89 781ft 0kts
29-Oct-18 16:46 34.200290 -118.365980 89 781ft 0kts
29-Oct-18 16:47 34.200290 -118.365980 89 781ft 0kts
29-Oct-18 16:48 34.200290 -118.365980 89 781ft 0kts
29-Oct-18 16:49 34.200290 -118.365980 89 781ft 0kts
29-Oct-18 16:50 34.200283 -118.365922 111 781ft 2kts
29-Oct-18 16:51 34.199098 -118.365686 102 781ft 10kts
29-Oct-18 16:52 34.198898 -118.360819 92 781ft 11kts
29-Oct-18 16:53 34.198877 -118.358282 89 781ft 5kts
29-Oct-18 16:54 34.202093 -118.358788 346 781ft 16kts
29-Oct-18 16:55 34.204980 -118.359578 347 781ft 7kts
29-Oct-18 16:56 34.207531 -118.360278 347 781ft 7kts
29-Oct-18 16:57 34.209492 -118.360631 66 781ft 3kts
29-Oct-18 16:58 34.201842 -118.357604 167 836ft 128kts
29-Oct-18 16:59 34.162702 -118.373138 222 3024ft 197kts
29-Oct-18 17:00 34.136376 -118.430253 273 3517ft 224kts
29-Oct-18 17:01 34.164955 -118.483216 347 4936ft 186kts
29-Oct-18 17:02 34.213708 -118.495896 350 6408ft 189kts
29-Oct-18 17:03 34.271319 -118.509958 350 7932ft 234kts
29-Oct-18 17:04 34.334478 -118.525041 350 9417ft 229kts
29-Oct-18 17:05 34.394774 -118.519743 44 10289ft 241kts
29-Oct-18 17:06 34.427448 -118.448945 64 11342ft 244kts
29-Oct-18 17:07 34.451512 -118.381294 68 12321ft 230kts
29-Oct-18 17:08 34.467842 -118.305148 68 13298ft 230kts
29-Oct-18 17:09 34.513719 -118.260463 21 14774ft 230kts
29-Oct-18 17:10 34.570800 -118.218562 35 16258ft 262kts
29-Oct-18 17:11 34.627804 -118.165685 37 17712ft 268kts
29-Oct-18 17:12 34.675837 -118.098625 71 18862ft 279kts
29-Oct-18 17:13 34.687420 -118.002493 78 19961ft 305kts
29-Oct-18 17:14 34.696087 -117.899531 84 21048ft 320kts
29-Oct-18 17:15 34.702389 -117.794338 84 22112ft 327kts
29-Oct-18 17:16 34.707238 -117.689269 85 22985ft 335kts
29-Oct-18 17:17 34.711719 -117.574851 85 22999ft 358kts
29-Oct-18 17:18 34.727691 -117.456716 70 23000ft 364kts
29-Oct-18 17:19 34.758275 -117.342930 71 22996ft 367kts
29-Oct-18 17:20 34.789058 -117.226653 71 22997ft 375kts
29-Oct-18 17:21 34.820688 -117.106827 71 23001ft 378kts
29-Oct-18 17:22 34.852122 -116.986905 71 23000ft 377kts
29-Oct-18 17:23 34.883266 -116.867915 71 22996ft 359kts
29-Oct-18 17:24 34.912514 -116.755397 71 22998ft 343kts
29-Oct-18 17:25 34.957103 -116.661373 54 22996ft 303kts
29-Oct-18 17:26 35.002308 -116.581663 54 22718ft 294kts
29-Oct-18 17:27 35.048491 -116.499718 54 22214ft 293kts
29-Oct-18 17:28 35.093027 -116.420439 54 21720ft 293kts
29-Oct-18 17:29 35.135810 -116.362083 44 21320ft 292kts
29-Oct-18 17:30 35.186389 -116.298677 45 20873ft 292kts
29-Oct-18 17:31 35.242341 -116.228464 45 20087ft 275kts
29-Oct-18 17:32 35.292994 -116.164820 45 16622ft 294kts
29-Oct-18 17:33 35.342999 -116.101805 44 15622ft 223kts
29-Oct-18 17:34 35.381659 -116.053062 45 15006ft 195kts
29-Oct-18 17:35 35.426477 -115.996437 45 14445ft 250kts
29-Oct-18 17:36 35.476464 -115.933151 45 13855ft 268kts
29-Oct-18 17:37 35.529536 -115.865831 45 13261ft 280kts
29-Oct-18 17:38 35.581954 -115.799183 45 13093ft 260kts
29-Oct-18 17:39 35.630090 -115.737888 45 13097ft 243kts
29-Oct-18 17:40 35.675925 -115.679416 45 13098ft 234kts
29-Oct-18 17:42 35.723236 -115.618958 45 13168ft 257kts
29-Oct-18 17:43 35.783415 -115.575566 5 13173ft 269kts
29-Oct-18 17:44 35.855394 -115.570196 2 13166ft 231kts
29-Oct-18 17:45 35.911558 -115.566950 3 13167ft 183kts
29-Oct-18 17:46 35.959899 -115.564020 8 13171ft 175kts
29-Oct-18 17:47 35.988104 -115.509339 66 12707ft 228kts
29-Oct-18 17:48 36.013245 -115.431433 67 11866ft 263kts
29-Oct-18 17:49 36.029131 -115.359174 91 11003ft 211kts
29-Oct-18 17:50 36.025319 -115.298065 92 10078ft 186kts
29-Oct-18 17:51 36.021277 -115.240661 93 9192ft 156kts
29-Oct-18 17:52 36.017524 -115.186952 92 8941ft 172kts
29-Oct-18 17:53 36.013839 -115.132813 93 8194ft 146kts
29-Oct-18 17:54 36.010798 -115.088431 91 8183ft 144kts
29-Oct-18 17:55 36.007641 -115.036554 91 8158ft 129kts
29-Oct-18 17:56 36.005366 -114.992616 89 8189ft 141kts
29-Oct-18 17:57 36.001856 -114.945621 95 8250ft 133kts
29-Oct-18 17:58 35.996303 -114.897976 90 8176ft 141kts
29-Oct-18 17:59 35.993730 -114.851763 92 8158ft 133kts
29-Oct-18 18:00 35.993065 -114.806124 50 8045ft 125kts
29-Oct-18 18:01 36.022270 -114.801657 356 7893ft 106kts
29-Oct-18 18:02 36.054399 -114.806577 353 8127ft 120kts
29-Oct-18 18:03 36.067152 -114.841473 274 7862ft 129kts
29-Oct-18 18:04 36.068074 -114.884703 276 7030ft 123kts
29-Oct-18 18:05 36.070028 -114.925105 276 6001ft 114kts
29-Oct-18 18:06 36.070614 -114.963592 274 5022ft 111kts
29-Oct-18 18:07 36.071938 -115.001557 277 4100ft 108kts
29-Oct-18 18:08 36.073317 -115.038770 273 3443ft 114kts
29-Oct-18 18:09 36.073586 -115.077472 272 2830ft 115kts
29-Oct-18 18:10 36.073629 -115.116687 273 2293ft 105kts
29-Oct-18 18:10 36.073649 -115.138595 267 2119ft 29kts
29-Oct-18 18:12 36.073983 -115.144139 290 2119ft 16kts
29-Oct-18 18:13 36.074523 -115.145470 301 2119ft 0kts
29-Oct-18 18:14 36.076958 -115.146550 1 2119ft 10kts
29-Oct-18 18:14 36.078496 -115.146870 92 2119ft 10kts
29-Oct-18 18:15 36.078267 -115.143503 93 2119ft 9kts
29-Oct-18 18:16 36.078258 -115.139454 90 2119ft 14kts
29-Oct-18 18:17 36.078378 -115.133956 51 2119ft 16kts
29-Oct-18 18:18 36.081316 -115.131516 0 2119ft 14kts
29-Oct-18 18:19 36.082824 -115.131513 359 2119ft 0kts
29-Oct-18 18:20 36.082824 -115.131513 359 2119ft 0kts
29-Oct-18 18:21 36.082824 -115.131513 359 2119ft 0kts
29-Oct-18 18:22 36.081070 -115.131516 1 2119ft 14kts
29-Oct-18 18:23 36.073513 -115.096353 273 2607ft 121kts
29-Oct-18 18:24 36.073710 -115.132921 273 2119ft 86kts

Navigation Log

Ident Type
Flight plan parsing failed, navigation log unavailable